Highland, New York
Current Conditions -  °F | °C
As of 2:01 AM on Friday 28 Nov 2014 (Local Time) from KPOU Reporting Station
Moderate Fog Moderate Fog  
Wind Chill: -6°   Ceiling: Unl
Heat Index: -6°   Visibility: 0.25mi
Dew Point: -7°   Wind: 0mph
Humidity: 92%   Direction: NA
Pressure: 30.06"   Gusts: NA
Location:  41.72°N, 73.96°W
Report Text: KPOU 280701Z AUTO 00000KT 1/4SM FZFG CLR M06/M07 A3006 RMK AO2 T10561067 TSNO
Loading
Personal Weather Stations






























Interactive Weather Map New forecast layout! Learn more

10-Day Weather Forecast

Advertisements
Track Severe Weather on mobile